createdAt,value
2018-05-31T00:02:05.307Z,50.89
2018-05-31T00:04:32.755Z,51.54
2018-05-31T00:07:00.143Z,50.63
2018-05-31T00:09:27.549Z,51.62
2018-05-31T00:11:55.088Z,51.70
2018-05-31T00:14:22.466Z,52.77
2018-05-31T00:16:49.857Z,51.12
2018-05-31T00:19:17.241Z,52.09
2018-05-31T00:21:44.786Z,51.54
2018-05-31T00:24:12.220Z,51.53
2018-05-31T00:26:39.649Z,50.54
2018-05-31T00:29:08.014Z,52.17
2018-05-31T00:31:35.400Z,52.51
2018-05-31T00:34:02.795Z,53.41
2018-05-31T00:36:30.419Z,53.20
2018-05-31T00:38:57.843Z,53.69
2018-05-31T00:41:25.481Z,52.46
2018-05-31T00:43:52.855Z,51.74
2018-05-31T00:46:20.268Z,52.22
2018-05-31T00:48:47.640Z,52.31
2018-05-31T00:51:15.022Z,52.01
2018-05-31T00:53:42.418Z,52.62
2018-05-31T00:56:16.522Z,55.69
2018-05-31T00:58:43.903Z,55.35
2018-05-31T01:01:11.294Z,53.55
2018-05-31T01:03:38.664Z,55.28
2018-05-31T01:06:06.089Z,54.85
2018-05-31T01:08:33.471Z,55.02
2018-05-31T01:11:00.903Z,54.84
2018-05-31T01:13:28.528Z,54.86
2018-05-31T01:15:57.138Z,55.62
2018-05-31T01:18:24.557Z,56.61
2018-05-31T01:20:52.128Z,57.75
2018-05-31T01:23:19.579Z,61.41
2018-05-31T01:25:46.978Z,62.27
2018-05-31T01:28:14.372Z,63.26
2018-05-31T01:30:41.756Z,61.55
2018-05-31T01:33:09.157Z,62.63
2018-05-31T01:35:36.576Z,63.66
2018-05-31T01:38:15.813Z,62.96
2018-05-31T01:40:43.246Z,63.69
2018-05-31T01:43:10.624Z,64.31
2018-05-31T01:45:37.995Z,63.90
2018-05-31T01:48:05.394Z,64.13
2018-05-31T01:50:32.786Z,63.29
2018-05-31T01:53:00.232Z,64.87
2018-05-31T01:55:27.933Z,65.11
2018-05-31T01:57:55.328Z,64.61
2018-05-31T02:00:22.726Z,64.85
2018-05-31T02:02:50.367Z,63.22
2018-05-31T02:05:17.753Z,62.55
2018-05-31T02:07:45.371Z,62.29
2018-05-31T02:10:12.736Z,62.92
2018-05-31T02:12:40.132Z,61.12
2018-05-31T02:15:08.577Z,62.37
2018-05-31T02:17:36.278Z,63.25
2018-05-31T02:20:03.844Z,62.84
2018-05-31T02:22:31.220Z,60.92
2018-05-31T02:24:58.600Z,61.26
2018-05-31T02:27:25.984Z,61.33
2018-05-31T02:29:53.487Z,60.59
2018-05-31T02:32:20.908Z,62.28
2018-05-31T02:34:48.287Z,61.01
2018-05-31T02:37:15.673Z,61.59
2018-05-31T02:39:43.051Z,61.12
2018-05-31T02:42:10.435Z,60.42
2018-05-31T02:44:41.237Z,62.16
2018-05-31T02:47:10.931Z,62.73
2018-05-31T02:49:39.031Z,62.25
2018-05-31T02:52:06.412Z,62.22
2018-05-31T02:54:33.807Z,64.09
2018-05-31T02:57:01.177Z,63.35
2018-05-31T02:59:28.572Z,64.18
2018-05-31T03:01:55.945Z,63.42
2018-05-31T03:04:23.332Z,65.00
2018-05-31T03:06:50.726Z,64.91
2018-05-31T03:09:18.119Z,65.73
2018-05-31T03:11:45.701Z,64.80
2018-05-31T03:14:13.082Z,64.80
2018-05-31T03:16:40.455Z,65.19
2018-05-31T03:19:07.842Z,65.24
2018-05-31T03:21:35.228Z,66.30
2018-05-31T03:24:02.624Z,64.12
2018-05-31T03:26:30.008Z,65.13
2018-05-31T03:28:57.400Z,65.45
2018-05-31T03:31:24.784Z,63.33
2018-05-31T03:33:52.168Z,64.49
2018-05-31T03:36:19.553Z,64.26
2018-05-31T03:38:46.935Z,64.40
2018-05-31T03:41:14.321Z,63.75
2018-05-31T03:43:41.727Z,63.88
2018-05-31T03:46:10.092Z,63.68
2018-05-31T03:48:37.473Z,63.74
2018-05-31T03:51:04.858Z,64.22
2018-05-31T03:53:32.234Z,65.72
2018-05-31T03:55:59.626Z,65.63
2018-05-31T03:58:27.006Z,65.45
2018-05-31T04:00:54.415Z,65.93
2018-05-31T04:03:21.804Z,64.61
2018-05-31T04:05:49.193Z,63.65
2018-05-31T04:08:16.580Z,64.03
2018-05-31T04:10:43.973Z,65.51
2018-05-31T04:13:11.353Z,63.79
2018-05-31T04:15:43.198Z,64.47
2018-05-31T04:18:10.685Z,64.21
2018-05-31T04:20:38.124Z,64.33
2018-05-31T04:23:05.495Z,63.76
2018-05-31T04:25:32.893Z,63.21
2018-05-31T04:28:00.282Z,61.49
2018-05-31T04:30:27.658Z,61.18
2018-05-31T04:32:55.052Z,61.10
2018-05-31T04:35:22.455Z,61.79
2018-05-31T04:37:49.842Z,61.74
2018-05-31T04:40:17.235Z,62.16
2018-05-31T04:42:44.626Z,62.30
2018-05-31T04:45:12.008Z,62.50
2018-05-31T04:47:40.440Z,61.36
2018-05-31T04:50:07.837Z,61.40
2018-05-31T04:52:35.227Z,60.86
2018-05-31T04:55:02.953Z,61.04
2018-05-31T04:57:30.334Z,61.52
2018-05-31T04:59:57.863Z,61.54
2018-05-31T05:02:25.253Z,60.75
2018-05-31T05:04:52.775Z,62.40
2018-05-31T05:07:20.159Z,62.58
2018-05-31T05:09:47.547Z,63.79
2018-05-31T05:12:15.309Z,63.12
2018-05-31T05:14:42.687Z,62.08
2018-05-31T05:17:10.640Z,61.57
2018-05-31T05:19:38.048Z,61.65
2018-05-31T05:22:05.423Z,61.42
2018-05-31T05:24:32.930Z,61.20
2018-05-31T05:27:00.312Z,59.54
2018-05-31T05:29:27.694Z,61.04
2018-05-31T05:31:55.071Z,60.99
2018-05-31T05:34:22.451Z,61.22
2018-05-31T05:36:49.849Z,60.17
2018-05-31T05:39:18.012Z,60.23
2018-05-31T05:41:45.603Z,60.19
2018-05-31T05:44:12.966Z,59.61
2018-05-31T05:46:41.213Z,58.79
2018-05-31T05:49:08.611Z,59.14
2018-05-31T05:51:35.994Z,59.14
2018-05-31T05:54:03.371Z,59.46
2018-05-31T05:56:30.804Z,60.24
2018-05-31T05:58:58.126Z,59.61
2018-05-31T06:01:25.528Z,59.69
2018-05-31T06:03:52.894Z,59.22
2018-05-31T06:06:20.295Z,59.13
2018-05-31T06:08:47.683Z,59.05
2018-05-31T06:11:15.062Z,58.57
2018-05-31T06:13:42.460Z,57.93
2018-05-31T06:16:09.851Z,58.60
2018-05-31T06:18:37.231Z,59.40
2018-05-31T06:21:04.619Z,60.15
2018-05-31T06:23:32.009Z,59.61
2018-05-31T06:25:59.414Z,60.00
2018-05-31T06:28:26.857Z,60.04
2018-05-31T06:30:54.243Z,60.32
2018-05-31T06:33:21.619Z,59.93
2018-05-31T06:35:49.034Z,60.14
2018-05-31T06:38:16.604Z,60.87
2018-05-31T06:40:43.993Z,60.23
2018-05-31T06:43:11.371Z,59.90
2018-05-31T06:45:38.769Z,60.02
2018-05-31T06:48:06.294Z,60.08
2018-05-31T06:50:33.790Z,60.24
2018-05-31T06:53:01.170Z,60.35
2018-05-31T06:55:28.558Z,60.42
2018-05-31T06:57:55.935Z,59.63
2018-05-31T07:00:23.303Z,59.58
2018-05-31T07:02:50.847Z,58.71
2018-05-31T07:05:18.226Z,58.45
2018-05-31T07:07:45.614Z,58.45
2018-05-31T07:10:12.983Z,57.69
2018-05-31T07:12:40.370Z,57.31
2018-05-31T07:15:07.759Z,57.08
2018-05-31T07:17:35.131Z,56.78
2018-05-31T07:20:02.512Z,55.90
2018-05-31T07:22:29.891Z,56.25
2018-05-31T07:24:57.274Z,56.52
2018-05-31T07:27:24.698Z,56.74
2018-05-31T07:29:52.064Z,57.47
2018-05-31T07:32:19.457Z,56.93
2018-05-31T07:34:46.835Z,56.33
2018-05-31T07:37:14.292Z,56.51
2018-05-31T07:39:41.661Z,56.46
2018-05-31T07:42:09.060Z,56.01
2018-05-31T07:44:36.467Z,56.76
2018-05-31T07:47:03.848Z,56.24
2018-05-31T07:49:31.234Z,55.62
2018-05-31T07:51:58.630Z,54.50
2018-05-31T07:54:26.017Z,54.52
2018-05-31T07:56:53.424Z,55.43
2018-05-31T07:59:20.826Z,54.66
2018-05-31T08:01:48.207Z,54.42
2018-05-31T08:04:15.587Z,55.10
2018-05-31T08:06:42.997Z,55.56
2018-05-31T08:09:10.366Z,55.41
2018-05-31T08:11:37.800Z,55.56
2018-05-31T08:14:05.189Z,55.33
2018-05-31T08:16:32.572Z,56.01
2018-05-31T08:18:59.963Z,55.98
2018-05-31T08:21:27.359Z,55.64
2018-05-31T08:23:54.739Z,55.02
2018-05-31T08:26:22.139Z,54.56
2018-05-31T08:28:49.538Z,54.78
2018-05-31T08:31:17.338Z,54.54
2018-05-31T08:33:44.738Z,55.40
2018-05-31T08:36:12.111Z,54.97
2018-05-31T08:38:40.507Z,54.65
2018-05-31T08:41:07.884Z,55.03
2018-05-31T08:43:35.412Z,54.92
2018-05-31T08:46:02.808Z,54.50
2018-05-31T08:48:30.182Z,53.77
2018-05-31T08:50:57.594Z,54.52
2018-05-31T08:53:24.946Z,54.29
2018-05-31T08:55:52.336Z,53.71
2018-05-31T08:58:19.726Z,53.86
2018-05-31T09:00:47.107Z,53.58
2018-05-31T09:03:14.492Z,53.72
2018-05-31T09:05:41.875Z,53.28
2018-05-31T09:08:09.258Z,53.34
2018-05-31T09:10:36.837Z,53.05
2018-05-31T09:13:04.220Z,52.78
2018-05-31T09:15:31.616Z,52.38
2018-05-31T09:17:59.013Z,52.42
2018-05-31T09:20:26.393Z,53.40
2018-05-31T09:22:53.804Z,52.43
2018-05-31T09:25:21.183Z,51.51
2018-05-31T09:27:48.591Z,51.57
2018-05-31T09:30:16.019Z,51.40
2018-05-31T09:32:43.404Z,50.74
2018-05-31T09:35:10.852Z,51.17
2018-05-31T09:37:38.249Z,51.10
2018-05-31T09:40:05.631Z,50.55
2018-05-31T09:42:33.010Z,49.98
2018-05-31T09:45:00.425Z,49.69
2018-05-31T09:47:27.814Z,50.28
2018-05-31T09:49:55.198Z,49.61
2018-05-31T09:52:22.586Z,49.30
2018-05-31T09:54:50.044Z,49.17
2018-05-31T09:57:17.433Z,48.80
2018-05-31T09:59:44.817Z,48.69
2018-05-31T10:02:12.203Z,48.26
2018-05-31T10:04:39.584Z,46.89
2018-05-31T10:07:07.760Z,46.12
2018-05-31T10:09:35.154Z,46.70
2018-05-31T10:12:02.532Z,46.68
2018-05-31T10:14:29.948Z,46.16
2018-05-31T10:16:57.332Z,45.27
2018-05-31T10:19:25.703Z,44.32
2018-05-31T10:21:54.345Z,44.14
2018-05-31T10:24:22.093Z,44.36
2018-05-31T10:26:49.580Z,43.96
2018-05-31T10:29:16.977Z,44.01
2018-05-31T10:31:44.355Z,43.14
2018-05-31T10:34:11.753Z,44.23
2018-05-31T10:36:39.127Z,43.94
2018-05-31T10:39:06.533Z,43.14
2018-05-31T10:41:33.916Z,44.40
2018-05-31T10:44:03.451Z,43.42
2018-05-31T10:46:30.977Z,43.25
2018-05-31T10:48:58.320Z,43.63
2018-05-31T10:51:27.619Z,44.78
2018-05-31T10:53:55.332Z,44.77
2018-05-31T10:56:22.711Z,45.32
2018-05-31T10:58:50.101Z,46.14
2018-05-31T11:01:17.488Z,45.89
2018-05-31T11:03:44.884Z,44.28
2018-05-31T11:06:12.268Z,43.71
2018-05-31T11:08:39.686Z,44.89
2018-05-31T11:11:07.039Z,44.74
2018-05-31T11:13:34.512Z,45.08
2018-05-31T11:16:01.898Z,44.62
2018-05-31T11:18:29.280Z,43.46
2018-05-31T11:20:56.664Z,42.79
2018-05-31T11:23:24.059Z,42.15
2018-05-31T11:25:52.454Z,42.09
2018-05-31T11:28:19.839Z,40.85
2018-05-31T11:30:47.229Z,39.65
2018-05-31T11:33:14.615Z,41.25
2018-05-31T11:35:42.368Z,39.97
2018-05-31T11:38:09.750Z,39.98
2018-05-31T11:40:38.435Z,39.35
2018-05-31T11:43:05.816Z,38.55
2018-05-31T11:45:33.219Z,37.64
2018-05-31T11:48:00.605Z,38.18
2018-05-31T11:50:28.014Z,35.40
2018-05-31T11:52:55.390Z,34.03
2018-05-31T11:55:22.809Z,36.88
2018-05-31T11:57:50.195Z,38.20
2018-05-31T12:00:17.604Z,37.81
2018-05-31T12:02:44.994Z,35.28
2018-05-31T12:05:12.397Z,35.09
2018-05-31T12:07:39.792Z,37.47
2018-05-31T12:10:07.215Z,39.26
2018-05-31T12:12:34.586Z,38.06
2018-05-31T12:15:02.026Z,35.79
2018-05-31T12:17:29.429Z,33.51
2018-05-31T12:19:56.821Z,32.38
2018-05-31T12:22:24.204Z,35.57
2018-05-31T12:24:51.616Z,37.32
2018-05-31T12:27:19.012Z,35.02
2018-05-31T12:29:46.411Z,33.49
2018-05-31T12:32:13.866Z,33.21
2018-05-31T12:34:41.751Z,36.26
2018-05-31T12:37:09.151Z,36.66
2018-05-31T12:39:36.560Z,35.41
2018-05-31T12:42:03.945Z,32.61
2018-05-31T12:44:31.472Z,34.25
2018-05-31T12:46:58.863Z,36.15
2018-05-31T12:49:26.264Z,34.89
2018-05-31T12:51:53.684Z,33.96
2018-05-31T12:54:21.068Z,33.15
2018-05-31T12:56:48.451Z,32.24
2018-05-31T12:59:15.835Z,32.40
2018-05-31T13:01:43.242Z,31.63
2018-05-31T13:04:10.673Z,32.25
2018-05-31T13:06:38.055Z,29.24
2018-05-31T13:09:05.493Z,28.26
2018-05-31T13:11:32.894Z,27.65
2018-05-31T13:14:00.298Z,25.97
2018-05-31T13:16:27.777Z,26.49
2018-05-31T13:18:55.368Z,26.24
2018-05-31T13:21:22.763Z,26.33
2018-05-31T13:23:50.152Z,26.57
2018-05-31T13:26:17.612Z,25.29
2018-05-31T13:28:45.090Z,23.75
2018-05-31T13:31:12.477Z,24.91
2018-05-31T13:33:39.878Z,24.92
2018-05-31T13:36:07.400Z,24.11
2018-05-31T13:38:34.846Z,24.23
2018-05-31T13:41:02.245Z,23.23
2018-05-31T13:43:29.644Z,23.21
2018-05-31T13:45:57.036Z,23.87
2018-05-31T13:48:24.441Z,23.91
2018-05-31T13:50:51.831Z,23.13
2018-05-31T13:53:19.216Z,21.19
2018-05-31T13:55:46.626Z,22.06
2018-05-31T13:58:14.021Z,23.54
2018-05-31T14:00:42.394Z,27.45
2018-05-31T14:03:09.784Z,28.83
2018-05-31T14:05:37.182Z,27.09
2018-05-31T14:08:04.563Z,24.96
2018-05-31T14:10:32.081Z,25.14
2018-05-31T14:12:59.476Z,23.34
2018-05-31T14:15:26.871Z,23.48
2018-05-31T14:17:54.280Z,22.45
2018-05-31T14:20:21.671Z,25.21
2018-05-31T14:22:49.120Z,26.88
2018-05-31T14:25:16.568Z,28.38
2018-05-31T14:27:43.965Z,25.95
2018-05-31T14:30:12.251Z,25.26
2018-05-31T14:32:39.660Z,24.18
2018-05-31T14:35:07.056Z,25.65
2018-05-31T14:37:34.541Z,24.73
2018-05-31T14:40:02.035Z,24.40
2018-05-31T14:42:29.543Z,24.15
2018-05-31T14:44:56.953Z,24.81
2018-05-31T14:47:24.426Z,23.22
2018-05-31T14:49:51.812Z,24.93
2018-05-31T14:52:19.203Z,24.41
2018-05-31T14:54:46.728Z,25.31
2018-05-31T14:57:14.142Z,24.55
2018-05-31T14:59:41.538Z,23.52
2018-05-31T15:02:08.932Z,24.10
2018-05-31T15:04:36.326Z,23.90
2018-05-31T15:07:03.722Z,23.78
2018-05-31T15:09:31.120Z,24.60
2018-05-31T15:11:58.511Z,23.64
2018-05-31T15:14:25.903Z,22.00
2018-05-31T15:16:53.317Z,21.87
2018-05-31T15:19:20.699Z,23.63
2018-05-31T15:21:48.111Z,25.41
2018-05-31T15:24:15.489Z,26.98
2018-05-31T15:26:42.880Z,27.36
2018-05-31T15:29:10.264Z,28.02
2018-05-31T15:31:37.649Z,27.64
2018-05-31T15:34:05.027Z,26.91
2018-05-31T15:36:32.423Z,27.74
2018-05-31T15:38:59.818Z,28.11
2018-05-31T15:41:27.199Z,28.83
2018-05-31T15:43:54.595Z,28.99
2018-05-31T15:46:21.963Z,29.06
2018-05-31T15:48:49.372Z,30.91
2018-05-31T15:51:16.769Z,30.35
2018-05-31T15:53:44.171Z,31.13
2018-05-31T15:56:11.572Z,31.35
2018-05-31T15:58:38.966Z,31.21
2018-05-31T16:01:06.367Z,31.77
2018-05-31T16:03:33.764Z,32.00
2018-05-31T16:06:01.134Z,32.27
2018-05-31T16:08:28.583Z,33.62
2018-05-31T16:10:55.975Z,33.68
2018-05-31T16:13:23.360Z,35.38
2018-05-31T16:15:50.746Z,34.82
2018-05-31T16:18:18.135Z,34.28
2018-05-31T16:20:45.515Z,34.16
2018-05-31T16:23:12.914Z,34.99
2018-05-31T16:25:40.315Z,35.28
2018-05-31T16:28:07.703Z,34.98
2018-05-31T16:30:35.089Z,35.67
2018-05-31T16:33:02.465Z,36.38
2018-05-31T16:35:29.849Z,35.90
2018-05-31T16:37:57.592Z,37.53
2018-05-31T16:40:24.963Z,37.59
2018-05-31T16:42:52.338Z,37.02
2018-05-31T16:45:19.720Z,37.18
2018-05-31T16:47:47.112Z,38.55
2018-05-31T16:50:14.590Z,38.70
2018-05-31T16:52:42.970Z,37.68
2018-05-31T16:55:10.423Z,37.53
2018-05-31T16:57:37.961Z,37.78
2018-05-31T17:00:05.367Z,37.86
2018-05-31T17:02:32.758Z,38.19
2018-05-31T17:05:00.159Z,38.65
2018-05-31T17:07:28.128Z,38.90
2018-05-31T17:09:55.526Z,39.14
2018-05-31T17:12:22.905Z,39.51
2018-05-31T17:14:50.386Z,40.07
2018-05-31T17:17:17.747Z,39.88
2018-05-31T17:19:45.154Z,40.00
2018-05-31T17:22:13.220Z,40.08
2018-05-31T17:24:40.664Z,39.86
2018-05-31T17:27:08.054Z,38.98
2018-05-31T17:29:35.461Z,38.40
2018-05-31T17:32:02.849Z,37.15
2018-05-31T17:34:30.250Z,36.96
2018-05-31T17:36:57.657Z,36.47
2018-05-31T17:39:27.150Z,36.09
2018-05-31T17:41:55.909Z,36.41
2018-05-31T17:44:23.618Z,36.87
2018-05-31T17:46:51.115Z,36.11
2018-05-31T17:49:20.534Z,36.85
2018-05-31T17:51:47.882Z,36.14
2018-05-31T17:54:15.270Z,37.61
2018-05-31T17:56:43.253Z,37.22
2018-05-31T17:59:10.646Z,37.82
2018-05-31T18:01:38.046Z,37.53
2018-05-31T18:04:05.450Z,38.41
2018-05-31T18:06:32.861Z,38.37
2018-05-31T18:09:00.257Z,38.63
2018-05-31T18:11:27.664Z,39.22
2018-05-31T18:13:55.110Z,39.30
2018-05-31T18:16:22.491Z,38.68
2018-05-31T18:18:49.878Z,38.76
2018-05-31T18:21:17.268Z,38.63
2018-05-31T18:23:44.835Z,39.62
2018-05-31T18:26:12.241Z,40.04
2018-05-31T18:28:39.627Z,39.61
2018-05-31T18:31:07.026Z,40.07
2018-05-31T18:33:34.411Z,41.03
2018-05-31T18:36:01.802Z,40.60
2018-05-31T18:38:29.228Z,41.41
2018-05-31T18:40:56.624Z,41.95
2018-05-31T18:43:24.004Z,42.61
2018-05-31T18:45:51.405Z,42.98
2018-05-31T18:48:18.779Z,42.07
2018-05-31T18:50:47.143Z,42.46
2018-05-31T18:53:14.519Z,43.05
2018-05-31T18:55:42.092Z,42.72
2018-05-31T18:58:09.483Z,42.64
2018-05-31T19:00:36.868Z,43.12
2018-05-31T19:03:04.270Z,43.12
2018-05-31T19:05:31.640Z,43.35
2018-05-31T19:07:59.078Z,44.01
2018-05-31T19:10:26.485Z,43.73
2018-05-31T19:12:59.524Z,43.52
2018-05-31T19:15:26.989Z,43.35
2018-05-31T19:17:54.366Z,43.51
2018-05-31T19:20:24.567Z,43.04
2018-05-31T19:22:51.962Z,43.89
2018-05-31T19:25:20.854Z,42.99
2018-05-31T19:27:48.263Z,43.77
2018-05-31T19:30:21.382Z,43.94
2018-05-31T19:32:48.781Z,43.73
2018-05-31T19:35:21.642Z,44.47
2018-05-31T19:37:49.041Z,45.17
2018-05-31T19:40:16.424Z,45.27
2018-05-31T19:42:49.367Z,46.05
2018-05-31T19:45:16.852Z,45.10
2018-05-31T19:47:44.276Z,44.75
2018-05-31T19:50:11.670Z,45.79
2018-05-31T19:52:44.760Z,45.52
2018-05-31T19:55:12.208Z,47.12
2018-05-31T19:57:45.233Z,46.22
2018-05-31T20:00:18.299Z,46.49
2018-05-31T20:02:51.233Z,46.82
2018-05-31T20:05:18.627Z,47.00
2018-05-31T20:07:47.111Z,46.36
2018-05-31T20:10:14.524Z,46.52
2018-05-31T20:12:41.941Z,46.76
2018-05-31T20:15:09.345Z,46.86
2018-05-31T20:17:36.864Z,47.02
2018-05-31T20:20:04.263Z,47.76
2018-05-31T20:22:31.655Z,46.82
2018-05-31T20:24:59.054Z,47.32
2018-05-31T20:27:26.464Z,48.55
2018-05-31T20:29:53.861Z,48.99
2018-05-31T20:32:21.244Z,48.39
2018-05-31T20:34:48.624Z,49.37
2018-05-31T20:37:16.057Z,48.32
2018-05-31T20:39:44.103Z,48.45
2018-05-31T20:42:11.553Z,48.94
2018-05-31T20:44:39.072Z,48.47
2018-05-31T20:47:06.463Z,49.25
2018-05-31T20:49:33.985Z,49.18
2018-05-31T20:52:01.384Z,49.03
2018-05-31T20:54:28.781Z,49.65
2018-05-31T20:56:56.172Z,50.49
2018-05-31T20:59:23.592Z,50.01
2018-05-31T21:01:50.982Z,49.90
2018-05-31T21:04:18.422Z,50.30
2018-05-31T21:06:45.795Z,51.39
2018-05-31T21:09:13.188Z,51.55
2018-05-31T21:11:40.559Z,50.66
2018-05-31T21:14:07.947Z,51.02
2018-05-31T21:16:35.326Z,52.11
2018-05-31T21:19:02.783Z,51.62
2018-05-31T21:21:30.170Z,51.61
2018-05-31T21:23:57.564Z,52.93
2018-05-31T21:26:24.956Z,52.12
2018-05-31T21:28:52.336Z,52.28
2018-05-31T21:31:19.728Z,52.24
2018-05-31T21:33:47.132Z,54.29
2018-05-31T21:36:14.599Z,54.93
2018-05-31T21:38:42.043Z,52.98
2018-05-31T21:41:09.476Z,52.93
2018-05-31T21:43:36.856Z,53.76
2018-05-31T21:46:04.216Z,54.20
2018-05-31T21:48:31.603Z,54.92
2018-05-31T21:50:58.983Z,54.81
2018-05-31T21:53:26.511Z,54.70
2018-05-31T21:55:53.916Z,54.45
2018-05-31T21:58:21.311Z,54.09
2018-05-31T22:00:54.248Z,54.96
2018-05-31T22:03:21.650Z,55.29
2018-05-31T22:05:49.036Z,54.46
2018-05-31T22:08:16.419Z,54.56
2018-05-31T22:10:44.543Z,55.17
2018-05-31T22:13:11.928Z,55.33
2018-05-31T22:15:39.307Z,55.75
2018-05-31T22:18:06.699Z,55.90
2018-05-31T22:20:34.083Z,56.38
2018-05-31T22:23:01.468Z,56.22
2018-05-31T22:25:28.857Z,56.53
2018-05-31T22:27:56.248Z,56.09
2018-05-31T22:30:23.902Z,56.05
2018-05-31T22:32:51.274Z,57.23
2018-05-31T22:35:18.672Z,57.74
2018-05-31T22:37:46.047Z,57.61
2018-05-31T22:40:13.438Z,56.67
2018-05-31T22:42:40.836Z,57.00
2018-05-31T22:45:08.230Z,57.90
2018-05-31T22:47:35.608Z,58.22
2018-05-31T22:50:02.995Z,57.76
2018-05-31T22:52:30.372Z,57.68
2018-05-31T22:54:57.752Z,58.88
2018-05-31T22:57:25.147Z,59.25
2018-05-31T22:59:52.544Z,58.99
2018-05-31T23:02:19.921Z,59.21
2018-05-31T23:04:47.321Z,58.97
2018-05-31T23:07:14.776Z,59.26
2018-05-31T23:09:42.181Z,59.55
2018-05-31T23:12:09.548Z,60.10
2018-05-31T23:14:36.944Z,59.73
2018-05-31T23:17:04.332Z,60.72
2018-05-31T23:19:31.731Z,61.63
2018-05-31T23:21:59.121Z,60.15
2018-05-31T23:24:26.513Z,59.58
2018-05-31T23:26:53.896Z,60.12
2018-05-31T23:29:21.283Z,60.96
2018-05-31T23:31:48.715Z,61.11
2018-05-31T23:34:16.098Z,61.58
2018-05-31T23:36:43.487Z,61.02
2018-05-31T23:39:10.862Z,62.01
2018-05-31T23:41:38.264Z,61.83
2018-05-31T23:44:05.652Z,62.10
2018-05-31T23:46:33.036Z,65.42
2018-05-31T23:49:00.428Z,64.54
2018-05-31T23:51:27.839Z,63.87
2018-05-31T23:53:55.225Z,64.13
2018-05-31T23:56:23.413Z,63.34
2018-05-31T23:58:50.803Z,64.97
